createdAt,value
2018-11-27T00:00:13.229Z,2.30
2018-11-27T00:02:40.794Z,2.30
2018-11-27T00:05:09.373Z,2.30
2018-11-27T00:07:37.076Z,2.20
2018-11-27T00:10:07.111Z,2.30
2018-11-27T00:12:35.315Z,2.30
2018-11-27T00:15:03.862Z,2.20
2018-11-27T00:17:32.399Z,2.20
2018-11-27T00:19:59.990Z,2.20
2018-11-27T00:22:27.590Z,2.20
2018-11-27T00:24:55.236Z,2.20
2018-11-27T00:27:26.473Z,2.10
2018-11-27T00:29:54.203Z,2.10
2018-11-27T00:32:21.821Z,2.10
2018-11-27T00:34:49.459Z,2.10
2018-11-27T00:37:17.043Z,2.10
2018-11-27T00:39:45.622Z,2.10
2018-11-27T00:42:14.379Z,2.10
2018-11-27T00:44:46.765Z,2.00
2018-11-27T00:47:14.506Z,2.00
2018-11-27T00:49:42.160Z,2.10
2018-11-27T00:52:09.673Z,2.10
2018-11-27T00:54:37.337Z,2.00
2018-11-27T00:57:04.993Z,2.00
2018-11-27T00:59:32.616Z,2.00
2018-11-27T01:02:00.165Z,2.00
2018-11-27T01:04:27.833Z,2.00
2018-11-27T01:06:55.425Z,2.00
2018-11-27T01:09:22.990Z,2.00
2018-11-27T01:11:54.267Z,2.00
2018-11-27T01:14:21.883Z,2.00
2018-11-27T01:16:49.565Z,2.00
2018-11-27T01:19:19.172Z,2.00
2018-11-27T01:21:46.749Z,2.00
2018-11-27T01:24:14.367Z,2.00
2018-11-27T01:26:41.932Z,2.00
2018-11-27T01:29:09.513Z,1.90
2018-11-27T01:31:37.277Z,1.90
2018-11-27T01:34:05.100Z,1.90
2018-11-27T01:36:32.741Z,1.90
2018-11-27T01:39:00.317Z,1.80
2018-11-27T01:41:27.864Z,1.80
2018-11-27T01:43:56.027Z,1.80
2018-11-27T01:46:23.826Z,1.80
2018-11-27T01:48:51.589Z,1.80
2018-11-27T01:51:19.121Z,1.80
2018-11-27T01:53:46.754Z,1.80
2018-11-27T01:56:15.373Z,1.80
2018-11-27T01:58:42.955Z,1.80
2018-11-27T02:01:10.526Z,1.80
2018-11-27T02:03:38.119Z,1.70
2018-11-27T02:06:06.713Z,1.80
2018-11-27T02:08:34.291Z,1.70
2018-11-27T02:11:01.864Z,1.70
2018-11-27T02:13:29.410Z,1.70
2018-11-27T02:15:58.966Z,1.60
2018-11-27T02:18:26.540Z,1.60
2018-11-27T02:20:54.095Z,1.60
2018-11-27T02:23:21.628Z,1.60
2018-11-27T02:25:49.267Z,1.60
2018-11-27T02:28:16.868Z,1.60
2018-11-27T02:30:44.417Z,1.50
2018-11-27T02:33:12.173Z,1.50
2018-11-27T02:35:39.756Z,1.50
2018-11-27T02:38:07.318Z,1.50
2018-11-27T02:40:34.911Z,1.50
2018-11-27T02:43:02.481Z,1.50
2018-11-27T02:45:30.017Z,1.50
2018-11-27T02:47:57.618Z,1.50
2018-11-27T02:50:25.865Z,1.50
2018-11-27T02:52:53.470Z,1.50
2018-11-27T02:55:22.705Z,1.50
2018-11-27T02:57:50.297Z,1.40
2018-11-27T03:00:25.732Z,1.40
2018-11-27T03:02:53.340Z,1.40
2018-11-27T03:05:29.281Z,1.50
2018-11-27T03:07:56.888Z,1.40
2018-11-27T03:10:24.454Z,1.40
2018-11-27T03:12:52.387Z,1.40
2018-11-27T03:15:20.013Z,1.40
2018-11-27T03:17:47.564Z,1.40
2018-11-27T03:20:16.250Z,1.40
2018-11-27T03:22:43.855Z,1.40
2018-11-27T03:25:13.289Z,1.40
2018-11-27T03:27:40.931Z,1.30
2018-11-27T03:30:12.521Z,1.30
2018-11-27T03:32:40.179Z,1.40
2018-11-27T03:35:09.450Z,1.40
2018-11-27T03:37:37.044Z,1.40
2018-11-27T03:40:07.326Z,1.40
2018-11-27T03:42:34.919Z,1.40
2018-11-27T03:45:02.525Z,1.40
2018-11-27T03:47:30.078Z,1.40
2018-11-27T03:49:57.642Z,1.40
2018-11-27T03:52:25.213Z,1.40
2018-11-27T03:54:52.775Z,1.40
2018-11-27T03:57:20.333Z,1.30
2018-11-27T03:59:47.899Z,1.30
2018-11-27T04:02:15.512Z,1.30
2018-11-27T04:04:43.082Z,1.40
2018-11-27T04:07:10.623Z,1.30
2018-11-27T04:09:38.215Z,1.30
2018-11-27T04:12:05.786Z,1.30
2018-11-27T04:14:33.319Z,1.30
2018-11-27T04:17:00.830Z,1.30
2018-11-27T04:19:28.382Z,1.30
2018-11-27T04:21:55.967Z,1.30
2018-11-27T04:24:23.551Z,1.30
2018-11-27T04:26:51.099Z,1.30
2018-11-27T04:29:18.699Z,1.20
2018-11-27T04:31:46.360Z,1.20
2018-11-27T04:34:13.954Z,1.20
2018-11-27T04:36:41.486Z,1.20
2018-11-27T04:39:09.121Z,1.20
2018-11-27T04:41:36.675Z,1.10
2018-11-27T04:44:04.356Z,1.20
2018-11-27T04:46:31.887Z,1.10
2018-11-27T04:48:59.418Z,1.10
2018-11-27T04:51:26.973Z,1.10
2018-11-27T04:53:54.552Z,1.10
2018-11-27T04:56:22.137Z,1.10
2018-11-27T04:58:49.734Z,1.10
2018-11-27T05:01:17.325Z,1.10
2018-11-27T05:03:44.969Z,1.10
2018-11-27T05:06:12.521Z,1.10
2018-11-27T05:08:40.148Z,1.10
2018-11-27T05:11:07.702Z,1.10
2018-11-27T05:13:35.251Z,1.10
2018-11-27T05:16:02.813Z,1.10
2018-11-27T05:18:30.378Z,1.10
2018-11-27T05:20:57.942Z,1.10
2018-11-27T05:23:25.513Z,1.10
2018-11-27T05:25:53.109Z,1.10
2018-11-27T05:28:20.710Z,1.10
2018-11-27T05:30:48.326Z,1.10
2018-11-27T05:33:15.868Z,1.20
2018-11-27T05:35:43.453Z,1.20
2018-11-27T05:38:11.072Z,1.20
2018-11-27T05:40:38.737Z,1.20
2018-11-27T05:43:08.090Z,1.20
2018-11-27T05:45:35.718Z,1.20
2018-11-27T05:48:03.334Z,1.20
2018-11-27T05:50:30.923Z,1.30
2018-11-27T05:52:58.482Z,1.30
2018-11-27T05:55:26.302Z,1.30
2018-11-27T05:57:54.627Z,1.30
2018-11-27T06:00:25.267Z,1.30
2018-11-27T06:02:54.978Z,1.30
2018-11-27T06:05:22.906Z,1.30
2018-11-27T06:07:50.519Z,1.30
2018-11-27T06:10:18.970Z,1.30
2018-11-27T06:12:46.679Z,1.30
2018-11-27T06:15:16.089Z,1.30
2018-11-27T06:17:44.263Z,1.30
2018-11-27T06:20:14.686Z,1.30
2018-11-27T06:22:42.294Z,1.30
2018-11-27T06:25:13.867Z,1.20
2018-11-27T06:27:41.492Z,1.30
2018-11-27T06:30:14.102Z,1.20
2018-11-27T06:32:41.705Z,1.20
2018-11-27T06:35:10.865Z,1.20
2018-11-27T06:37:38.562Z,1.20
2018-11-27T06:40:24.433Z,1.20
2018-11-27T06:42:52.150Z,1.20
2018-11-27T06:45:20.251Z,1.10
2018-11-27T06:47:48.648Z,1.10
2018-11-27T06:50:17.434Z,1.10
2018-11-27T06:52:45.167Z,1.10
2018-11-27T06:55:13.731Z,1.10
2018-11-27T06:57:41.326Z,1.20
2018-11-27T07:00:11.990Z,1.20
2018-11-27T07:02:39.565Z,1.20
2018-11-27T07:05:08.037Z,1.20
2018-11-27T07:07:35.582Z,1.20
2018-11-27T07:10:03.470Z,1.20
2018-11-27T07:12:31.095Z,1.20
2018-11-27T07:14:59.727Z,1.20
2018-11-27T07:17:27.310Z,1.20
2018-11-27T07:19:54.865Z,1.20
2018-11-27T07:22:22.446Z,1.20
2018-11-27T07:24:50.225Z,1.10
2018-11-27T07:27:17.753Z,1.20
2018-11-27T07:29:45.543Z,1.20
2018-11-27T07:32:13.095Z,1.20
2018-11-27T07:34:40.751Z,1.20
2018-11-27T07:37:08.309Z,1.20
2018-11-27T07:39:35.887Z,1.10
2018-11-27T07:42:03.546Z,1.10
2018-11-27T07:44:31.170Z,1.10
2018-11-27T07:46:58.757Z,1.10
2018-11-27T07:49:26.301Z,1.10
2018-11-27T07:51:53.858Z,1.10
2018-11-27T07:54:21.460Z,1.20
2018-11-27T07:56:49.036Z,1.20
2018-11-27T07:59:16.586Z,1.20
2018-11-27T08:01:44.184Z,1.20
2018-11-27T08:04:11.740Z,1.20
2018-11-27T08:06:39.282Z,1.20
2018-11-27T08:09:08.555Z,1.20
2018-11-27T08:11:36.134Z,1.30
2018-11-27T08:14:03.765Z,1.30
2018-11-27T08:16:31.371Z,1.30
2018-11-27T08:18:59.126Z,1.30
2018-11-27T08:21:26.655Z,1.30
2018-11-27T08:23:54.246Z,1.30
2018-11-27T08:26:21.807Z,1.40
2018-11-27T08:28:49.446Z,1.40
2018-11-27T08:31:19.206Z,1.40
2018-11-27T08:33:46.911Z,1.50
2018-11-27T08:36:14.478Z,1.50
2018-11-27T08:38:42.049Z,1.50
2018-11-27T08:41:09.584Z,1.50
2018-11-27T08:43:37.204Z,1.50
2018-11-27T08:46:05.177Z,1.60
2018-11-27T08:48:32.751Z,1.60
2018-11-27T08:51:00.278Z,1.60
2018-11-27T08:53:27.834Z,1.70
2018-11-27T08:55:55.578Z,1.70
2018-11-27T08:58:23.147Z,1.70
2018-11-27T09:00:50.722Z,1.80
2018-11-27T09:03:18.302Z,1.80
2018-11-27T09:05:45.918Z,1.80
2018-11-27T09:08:13.498Z,1.80
2018-11-27T09:10:41.131Z,1.90
2018-11-27T09:13:08.719Z,1.90
2018-11-27T09:15:36.448Z,1.90
2018-11-27T09:18:15.246Z,1.90
2018-11-27T09:20:42.866Z,1.90
2018-11-27T09:23:10.396Z,1.90
2018-11-27T09:25:37.969Z,1.90
2018-11-27T09:28:05.616Z,1.90
2018-11-27T09:30:33.210Z,1.90
2018-11-27T09:33:00.782Z,1.90
2018-11-27T09:35:28.337Z,2.00
2018-11-27T09:37:55.902Z,2.00
2018-11-27T09:40:23.470Z,2.00
2018-11-27T09:42:51.053Z,2.10
2018-11-27T09:45:21.550Z,2.20
2018-11-27T09:47:50.153Z,2.20
2018-11-27T09:50:17.827Z,2.40
2018-11-27T09:52:45.438Z,2.40
2018-11-27T09:55:22.428Z,2.50
2018-11-27T09:57:50.017Z,2.50
2018-11-27T10:00:20.715Z,2.60
2018-11-27T10:02:49.878Z,2.60
2018-11-27T10:05:17.446Z,2.70
2018-11-27T10:07:45.027Z,2.70
2018-11-27T10:10:13.987Z,2.80
2018-11-27T10:12:41.553Z,2.80
2018-11-27T10:15:11.150Z,2.90
2018-11-27T10:17:38.723Z,3.00
2018-11-27T10:20:08.525Z,3.10
2018-11-27T10:22:36.129Z,3.20
2018-11-27T10:25:04.178Z,3.20
2018-11-27T10:27:31.750Z,3.30
2018-11-27T10:29:59.314Z,3.30
2018-11-27T10:32:26.947Z,3.40
2018-11-27T10:34:54.462Z,3.40
2018-11-27T10:37:22.002Z,3.50
2018-11-27T10:39:49.559Z,3.60
2018-11-27T10:42:17.099Z,3.70
2018-11-27T10:44:44.699Z,3.80
2018-11-27T10:47:12.266Z,3.80
2018-11-27T10:49:39.942Z,3.80
2018-11-27T10:52:07.486Z,3.90
2018-11-27T10:54:35.160Z,4.00
2018-11-27T10:57:02.812Z,4.10
2018-11-27T10:59:31.386Z,4.10
2018-11-27T11:02:04.734Z,4.20
2018-11-27T11:04:32.394Z,4.30
2018-11-27T11:07:00.158Z,4.40
2018-11-27T11:09:27.722Z,4.50
2018-11-27T11:11:59.224Z,4.50
2018-11-27T11:14:22.938Z,4.60
2018-11-27T11:16:50.514Z,4.60
2018-11-27T11:19:19.099Z,4.50
2018-11-27T11:21:46.736Z,4.60
2018-11-27T11:24:14.317Z,4.60
2018-11-27T11:26:41.988Z,4.50
2018-11-27T11:29:09.561Z,4.60
2018-11-27T11:31:37.120Z,4.50
2018-11-27T11:34:06.119Z,4.60
2018-11-27T11:36:33.999Z,4.60
2018-11-27T11:39:02.050Z,4.60
2018-11-27T11:41:31.404Z,4.60
2018-11-27T11:43:57.351Z,4.60
2018-11-27T11:46:24.894Z,4.60
2018-11-27T11:48:52.462Z,4.60
2018-11-27T11:51:20.050Z,4.60
2018-11-27T11:53:50.408Z,4.60
2018-11-27T11:56:20.143Z,4.60
2018-11-27T11:58:49.870Z,4.50
2018-11-27T12:01:19.562Z,4.50
2018-11-27T12:03:48.155Z,4.50
2018-11-27T12:06:16.778Z,4.50
2018-11-27T12:08:44.391Z,4.50
2018-11-27T12:11:12.234Z,4.50
2018-11-27T12:13:39.832Z,4.50
2018-11-27T12:16:07.498Z,4.50
2018-11-27T12:18:42.466Z,4.50
2018-11-27T12:21:10.050Z,4.40
2018-11-27T12:23:38.687Z,4.40
2018-11-27T12:26:06.321Z,4.40
2018-11-27T12:28:33.988Z,4.50
2018-11-27T12:31:01.588Z,4.70
2018-11-27T12:33:29.151Z,4.90
2018-11-27T12:35:56.817Z,5.00
2018-11-27T12:38:24.358Z,5.20
2018-11-27T12:40:52.166Z,5.40
2018-11-27T12:43:20.763Z,5.50
2018-11-27T12:45:48.467Z,5.40
2018-11-27T12:48:16.161Z,5.30
2018-11-27T12:50:47.706Z,5.20
2018-11-27T12:53:17.168Z,5.10
2018-11-27T12:55:45.201Z,5.00
2018-11-27T12:58:12.817Z,4.80
2018-11-27T13:00:40.496Z,4.70
2018-11-27T13:03:08.101Z,4.70
2018-11-27T13:05:40.731Z,4.60
2018-11-27T13:08:11.726Z,4.50
2018-11-27T13:10:40.337Z,4.50
2018-11-27T13:13:07.930Z,4.50
2018-11-27T13:15:38.070Z,4.50
2018-11-27T13:18:07.693Z,4.40
2018-11-27T13:20:36.883Z,4.40
2018-11-27T13:23:04.729Z,4.40
2018-11-27T13:25:32.302Z,4.30
2018-11-27T13:27:59.979Z,4.20
2018-11-27T13:30:44.811Z,4.10
2018-11-27T13:33:17.838Z,4.00
2018-11-27T13:35:45.601Z,3.80
2018-11-27T13:38:13.327Z,3.80
2018-11-27T13:40:40.899Z,3.70
2018-11-27T13:43:09.167Z,3.60
2018-11-27T13:45:37.128Z,3.60
2018-11-27T13:48:05.994Z,3.60
2018-11-27T13:50:33.515Z,3.60
2018-11-27T13:53:01.124Z,3.50
2018-11-27T13:55:30.844Z,3.50
2018-11-27T13:57:59.479Z,3.50
2018-11-27T14:00:27.272Z,3.50
2018-11-27T14:03:02.284Z,3.40
2018-11-27T14:05:29.843Z,3.40
2018-11-27T14:08:01.608Z,3.40
2018-11-27T14:10:29.203Z,3.40
2018-11-27T14:12:56.818Z,3.40
2018-11-27T14:15:25.278Z,3.40
2018-11-27T14:17:55.199Z,3.40
2018-11-27T14:20:22.798Z,3.40
2018-11-27T14:22:50.688Z,3.40
2018-11-27T14:25:18.572Z,3.40
2018-11-27T14:27:48.051Z,3.40
2018-11-27T14:30:21.316Z,3.40
2018-11-27T14:32:49.047Z,3.40
2018-11-27T14:35:20.822Z,3.30
2018-11-27T14:37:53.648Z,3.30
2018-11-27T14:40:22.645Z,3.30
2018-11-27T14:42:50.815Z,3.30
2018-11-27T14:45:20.919Z,3.30
2018-11-27T14:47:49.582Z,3.30
2018-11-27T14:50:17.298Z,3.30
2018-11-27T14:52:44.867Z,3.30
2018-11-27T14:55:15.716Z,3.30
2018-11-27T14:57:43.385Z,3.30
2018-11-27T15:00:15.058Z,3.30
2018-11-27T15:02:42.720Z,3.30
2018-11-27T15:05:15.894Z,3.30
2018-11-27T15:07:43.457Z,3.30
2018-11-27T15:10:12.284Z,3.20
2018-11-27T15:12:39.938Z,3.20
2018-11-27T15:15:09.371Z,3.20
2018-11-27T15:17:37.000Z,3.20
2018-11-27T15:20:07.818Z,3.20
2018-11-27T15:22:35.461Z,3.10
2018-11-27T15:25:05.496Z,3.10
2018-11-27T15:27:33.078Z,3.10
2018-11-27T15:30:00.932Z,3.10
2018-11-27T15:32:28.494Z,3.00
2018-11-27T15:34:56.055Z,3.00
2018-11-27T15:37:23.610Z,3.00
2018-11-27T15:39:51.225Z,2.90
2018-11-27T15:42:18.983Z,2.90
2018-11-27T15:44:46.578Z,2.90
2018-11-27T15:47:14.141Z,2.90
2018-11-27T15:49:41.801Z,2.80
2018-11-27T15:52:09.326Z,2.80
2018-11-27T15:54:36.980Z,2.80
2018-11-27T15:57:04.854Z,2.80
2018-11-27T15:59:32.370Z,2.80
2018-11-27T16:02:01.051Z,2.80
2018-11-27T16:04:28.618Z,2.80
2018-11-27T16:07:00.039Z,2.70
2018-11-27T16:09:27.634Z,2.70
2018-11-27T16:11:55.362Z,2.70
2018-11-27T16:14:22.964Z,2.70
2018-11-27T16:16:50.672Z,2.70
2018-11-27T16:19:22.773Z,2.60
2018-11-27T16:21:50.438Z,2.60
2018-11-27T16:24:18.145Z,2.60
2018-11-27T16:26:47.018Z,2.60
2018-11-27T16:29:14.799Z,2.50
2018-11-27T16:31:49.782Z,2.50
2018-11-27T16:34:17.374Z,2.50
2018-11-27T16:36:44.921Z,2.50
2018-11-27T16:39:13.514Z,2.50
2018-11-27T16:41:42.639Z,2.50
2018-11-27T16:44:10.226Z,2.40
2018-11-27T16:46:37.789Z,2.50
2018-11-27T16:49:06.056Z,2.50
2018-11-27T16:51:33.673Z,2.40
2018-11-27T16:54:01.623Z,2.40
2018-11-27T16:56:29.188Z,2.40
2018-11-27T16:58:56.775Z,2.40
2018-11-27T17:01:24.346Z,2.40
2018-11-27T17:03:52.110Z,2.40
2018-11-27T17:06:19.822Z,2.40
2018-11-27T17:08:47.883Z,2.40
2018-11-27T17:11:15.473Z,2.40
2018-11-27T17:13:43.122Z,2.40
2018-11-27T17:16:10.697Z,2.40
2018-11-27T17:18:38.415Z,2.30
2018-11-27T17:21:06.174Z,2.30
2018-11-27T17:23:35.531Z,2.30
2018-11-27T17:26:04.130Z,2.20
2018-11-27T17:28:31.156Z,2.20
2018-11-27T17:31:10.912Z,2.10
2018-11-27T17:33:47.252Z,2.10
2018-11-27T17:36:14.929Z,2.10
2018-11-27T17:38:42.570Z,2.10
2018-11-27T17:41:10.211Z,2.20
2018-11-27T17:43:38.783Z,2.20
2018-11-27T17:46:06.731Z,2.20
2018-11-27T17:48:34.502Z,2.20
2018-11-27T17:51:06.646Z,2.20
2018-11-27T17:53:34.317Z,2.20
2018-11-27T17:56:01.922Z,2.20
2018-11-27T17:58:29.525Z,2.20
2018-11-27T18:00:57.124Z,2.20
2018-11-27T18:03:28.073Z,2.20
2018-11-27T18:05:55.601Z,2.20
2018-11-27T18:08:23.134Z,2.20
2018-11-27T18:10:50.841Z,2.20
2018-11-27T18:13:19.466Z,2.20
2018-11-27T18:15:47.277Z,2.20
2018-11-27T18:18:19.485Z,2.20
2018-11-27T18:20:49.085Z,2.20
2018-11-27T18:23:16.895Z,2.20
2018-11-27T18:25:45.554Z,2.20
2018-11-27T18:28:14.770Z,2.20
2018-11-27T18:30:48.448Z,2.20
2018-11-27T18:33:20.277Z,2.20
2018-11-27T18:35:53.396Z,2.10
2018-11-27T18:38:22.795Z,2.10
2018-11-27T18:40:53.624Z,2.10
2018-11-27T18:43:24.542Z,2.10
2018-11-27T18:45:53.336Z,2.10
2018-11-27T18:48:21.276Z,2.10
2018-11-27T18:50:49.563Z,2.10
2018-11-27T18:53:18.603Z,2.10
2018-11-27T18:55:47.915Z,2.10
2018-11-27T18:58:22.360Z,2.00
2018-11-27T19:00:51.070Z,2.00
2018-11-27T19:03:19.045Z,2.00
2018-11-27T19:05:47.054Z,2.00
2018-11-27T19:08:15.081Z,2.00
2018-11-27T19:10:42.946Z,2.00
2018-11-27T19:13:11.566Z,2.00
2018-11-27T19:15:46.351Z,2.00
2018-11-27T19:18:19.426Z,2.00
2018-11-27T19:20:50.898Z,2.00
2018-11-27T19:23:23.691Z,2.00
2018-11-27T19:25:57.035Z,2.00
2018-11-27T19:28:24.756Z,1.90
2018-11-27T19:30:52.640Z,1.90
2018-11-27T19:33:20.279Z,1.90
2018-11-27T19:35:48.355Z,1.90
2018-11-27T19:38:20.618Z,1.90
2018-11-27T19:40:53.169Z,1.90
2018-11-27T19:43:20.764Z,1.90
2018-11-27T19:45:48.532Z,1.90
2018-11-27T19:48:19.776Z,1.90
2018-11-27T19:50:47.793Z,1.90
2018-11-27T19:53:16.856Z,1.80
2018-11-27T19:55:44.596Z,1.80
2018-11-27T19:58:14.233Z,1.80
2018-11-27T20:00:43.899Z,1.70
2018-11-27T20:03:12.593Z,1.70
2018-11-27T20:05:41.545Z,1.60
2018-11-27T20:08:14.379Z,1.60
2018-11-27T20:10:46.745Z,1.60
2018-11-27T20:13:15.413Z,1.50
2018-11-27T20:15:44.027Z,1.50
2018-11-27T20:18:16.089Z,1.50
2018-11-27T20:20:43.689Z,1.40
2018-11-27T20:23:11.345Z,1.40
2018-11-27T20:25:38.958Z,1.30
2018-11-27T20:28:08.417Z,1.30
2018-11-27T20:30:41.747Z,1.20
2018-11-27T20:33:15.193Z,1.20
2018-11-27T20:35:42.808Z,1.10
2018-11-27T20:38:10.846Z,1.00
2018-11-27T20:40:39.346Z,1.00
2018-11-27T20:43:07.207Z,0.90
2018-11-27T20:45:37.090Z,0.90
2018-11-27T20:48:13.625Z,0.80
2018-11-27T20:50:41.319Z,0.80
2018-11-27T20:53:08.969Z,0.70
2018-11-27T20:55:39.592Z,0.70
2018-11-27T20:58:09.322Z,0.60
2018-11-27T21:00:38.136Z,0.60
2018-11-27T21:03:07.285Z,0.50
2018-11-27T21:05:34.969Z,0.50
2018-11-27T21:08:05.312Z,0.50
2018-11-27T21:10:38.969Z,0.40
2018-11-27T21:13:10.783Z,0.40
2018-11-27T21:15:41.542Z,0.40
2018-11-27T21:18:10.851Z,0.30
2018-11-27T21:20:39.329Z,0.30
2018-11-27T21:23:08.034Z,0.20
2018-11-27T21:25:35.583Z,0.20
2018-11-27T21:28:12.781Z,0.20
2018-11-27T21:30:40.486Z,0.20
2018-11-27T21:33:08.176Z,0.10
2018-11-27T21:35:39.789Z,0.10
2018-11-27T21:38:08.470Z,0.10
2018-11-27T21:40:38.114Z,0.10
2018-11-27T21:43:09.160Z,0.10
2018-11-27T21:45:37.791Z,0.10
2018-11-27T21:48:07.119Z,0.10
2018-11-27T21:50:38.800Z,0.10
2018-11-27T21:53:06.430Z,0.10
2018-11-27T21:55:36.623Z,0.10
2018-11-27T21:58:04.872Z,0.10
2018-11-27T22:00:33.524Z,0.10
2018-11-27T22:03:01.165Z,0.20
2018-11-27T22:05:28.741Z,0.20
2018-11-27T22:07:56.406Z,0.20
2018-11-27T22:10:24.595Z,0.20
2018-11-27T22:12:57.212Z,0.20
2018-11-27T22:15:28.379Z,0.20
2018-11-27T22:17:58.081Z,0.30
2018-11-27T22:20:25.647Z,0.30
2018-11-27T22:22:53.334Z,0.20
2018-11-27T22:25:21.945Z,0.20
2018-11-27T22:27:49.580Z,0.20
2018-11-27T22:30:18.275Z,0.20
2018-11-27T22:32:47.637Z,0.20
2018-11-27T22:35:16.332Z,0.20
2018-11-27T22:37:45.159Z,0.20
2018-11-27T22:40:18.771Z,0.10
2018-11-27T22:42:47.369Z,0.10
2018-11-27T22:45:33.357Z,0.20
2018-11-27T22:48:01.058Z,0.20
2018-11-27T22:50:28.652Z,0.20
2018-11-27T22:52:56.293Z,0.20
2018-11-27T22:55:23.969Z,0.20
2018-11-27T22:57:51.746Z,0.30
2018-11-27T23:00:29.133Z,0.30
2018-11-27T23:02:57.944Z,0.30
2018-11-27T23:05:27.543Z,0.30
2018-11-27T23:07:55.440Z,0.40
2018-11-27T23:10:26.426Z,0.40
2018-11-27T23:12:54.054Z,0.40
2018-11-27T23:15:21.822Z,0.40
2018-11-27T23:17:49.487Z,0.40
2018-11-27T23:20:17.803Z,0.50
2018-11-27T23:22:46.559Z,0.50
2018-11-27T23:25:16.664Z,0.50
2018-11-27T23:27:44.330Z,0.50
2018-11-27T23:30:14.188Z,0.50
2018-11-27T23:32:45.123Z,0.60
2018-11-27T23:35:12.826Z,0.60
2018-11-27T23:37:40.464Z,0.60
2018-11-27T23:40:09.320Z,0.60
2018-11-27T23:42:37.329Z,0.70
2018-11-27T23:45:09.211Z,0.70
2018-11-27T23:47:36.852Z,0.70
2018-11-27T23:50:05.378Z,0.70
2018-11-27T23:52:33.042Z,0.70
2018-11-27T23:55:00.587Z,0.70
2018-11-27T23:57:28.129Z,0.60
2018-11-27T23:59:55.958Z,0.70
